Time;durP1;ratioP1;P1;durP2;ratioP2;P2;SDS_P1;SDS_P2;PMS_P1;PMS_P2;Temp;Humidity;BMP_temperature;BMP_pressure;BME280_temperature;BME280_humidity;BME280_pressure;Samples;Min_cycle;Max_cycle;Signal;HPM_P1;HPM_P2
2020/12/18 00:00:54;;;;;;;34.14;19.02;;;;;;;4.51;70.63;100539.56;362496;110;1960727;-73
2020/12/18 00:01:59;;;;;;;36.56;21.29;;;;;;;4.53;70.56;100537.59;364370;112;1959743;-73
2020/12/18 00:03:04;;;;;;;33.39;19.58;;;;;;;4.55;70.29;100534.75;355650;112;1960577;-73
2020/12/18 00:04:10;;;;;;;32.38;20.77;;;;;;;4.56;70.32;100528.43;358213;112;1960696;-72
2020/12/18 00:05:16;;;;;;;38.44;19.30;;;;;;;4.57;70.42;100530.94;356704;112;1960652;-73
2020/12/18 00:06:24;;;;;;;36.24;21.12;;;;;;;4.60;70.31;100535.16;343674;112;1960631;-73
2020/12/18 00:07:29;;;;;;;35.99;20.84;;;;;;;4.60;70.03;100535.16;355581;112;1960565;-73
2020/12/18 00:08:34;;;;;;;38.07;21.42;;;;;;;4.61;70.20;100528.84;356338;112;1960672;-72
2020/12/18 00:09:41;;;;;;;35.92;20.30;;;;;;;4.62;70.15;100527.83;356821;112;1960615;-72
2020/12/18 00:10:47;;;;;;;36.97;21.02;;;;;;;4.63;70.11;100529.51;338648;112;1960624;-72
2020/12/18 00:11:53;;;;;;;37.13;22.12;;;;;;;4.63;70.15;100533.05;356388;112;1960809;-72
2020/12/18 00:12:59;;;;;;;39.07;23.55;;;;;;;4.65;70.02;100530.21;360400;112;1960976;-72
2020/12/18 00:14:05;;;;;;;35.21;20.46;;;;;;;4.68;69.98;100526.41;359389;112;1960614;-72
2020/12/18 00:15:10;;;;;;;39.06;22.83;;;;;;;4.69;69.95;100526.27;319866;112;2664721;-72
2020/12/18 00:16:18;;;;;;;36.39;23.07;;;;;;;4.70;69.78;100533.30;360653;112;1960695;-73
2020/12/18 00:17:24;;;;;;;38.01;22.60;;;;;;;4.68;69.79;100534.43;360449;113;1960704;-72
2020/12/18 00:18:30;;;;;;;41.88;23.32;;;;;;;4.62;69.85;100534.02;340129;112;2327668;-72
2020/12/18 00:19:35;;;;;;;38.60;24.59;;;;;;;4.56;70.10;100523.08;334748;114;1960644;-72
2020/12/18 00:20:42;;;;;;;41.26;24.04;;;;;;;4.49;70.12;100530.83;357639;112;1960695;-71
2020/12/18 00:21:48;;;;;;;42.12;22.64;;;;;;;4.39;70.39;100530.88;355361;112;1960616;-72
2020/12/18 00:22:54;;;;;;;38.60;22.21;;;;;;;4.33;70.52;100527.92;322119;112;2634696;-72
2020/12/18 00:23:59;;;;;;;40.77;23.89;;;;;;;4.32;70.59;100532.43;342336;112;1960615;-71
2020/12/18 00:25:05;;;;;;;38.78;22.25;;;;;;;4.33;70.57;100531.43;355998;112;1960631;-72
2020/12/18 00:26:11;;;;;;;42.37;24.12;;;;;;;4.36;70.66;100522.27;360280;112;1960697;-73
2020/12/18 00:27:17;;;;;;;40.90;22.34;;;;;;;4.40;70.48;100521.02;362252;112;1960654;-73
2020/12/18 00:28:23;;;;;;;40.39;22.97;;;;;;;4.42;70.39;100529.74;335890;112;2434757;-72
2020/12/18 00:29:29;;;;;;;37.94;22.20;;;;;;;4.46;70.37;100527.61;341183;112;1961608;-72
2020/12/18 00:30:35;;;;;;;40.37;22.72;;;;;;;4.48;70.33;100523.80;356343;112;1960774;-71
2020/12/18 00:31:41;;;;;;;41.25;23.03;;;;;;;4.48;70.39;100523.80;356758;112;1960693;-72
2020/12/18 00:32:46;;;;;;;43.41;23.87;;;;;;;4.50;70.38;100526.31;355387;114;1960676;-72
2020/12/18 00:33:52;;;;;;;38.04;22.79;;;;;;;4.50;70.50;100521.83;331575;114;2393680;-71
2020/12/18 00:34:58;;;;;;;41.90;24.85;;;;;;;4.53;70.55;100529.56;332016;114;1960633;-72
2020/12/18 00:36:05;;;;;;;44.73;23.39;;;;;;;4.55;70.44;100527.59;354148;114;1960727;-72
2020/12/18 00:37:11;;;;;;;44.46;24.91;;;;;;;4.60;70.47;100524.45;356650;112;1960633;-72
2020/12/18 00:38:17;;;;;;;41.27;24.64;;;;;;;4.65;70.43;100526.70;316914;112;2789679;-71
2020/12/18 00:39:22;;;;;;;42.08;24.48;;;;;;;4.68;70.23;100524.56;334333;112;1960681;-71
2020/12/18 00:40:28;;;;;;;47.58;27.05;;;;;;;4.70;70.11;100519.91;357684;112;1960679;-71
2020/12/18 00:41:34;;;;;;;43.16;24.59;;;;;;;4.74;70.08;100521.31;356274;112;1960736;-72
2020/12/18 00:42:40;;;;;;;45.41;25.17;;;;;;;4.77;69.94;100520.18;356675;112;1960715;-72
2020/12/18 00:43:46;;;;;;;42.43;24.39;;;;;;;4.79;69.91;100526.20;319699;112;2685691;-72
2020/12/18 00:44:52;;;;;;;48.77;26.29;;;;;;;4.80;69.79;100522.56;357673;112;1961712;-72
2020/12/18 00:45:57;;;;;;;44.68;25.69;;;;;;;4.82;69.73;100517.91;348392;116;1960612;-72
2020/12/18 00:47:03;;;;;;;45.44;25.32;;;;;;;4.78;69.46;100522.69;348867;114;1960694;-72
2020/12/18 00:48:11;;;;;;;45.48;26.52;;;;;;;4.70;69.46;100516.40;360404;112;1960646;-72
2020/12/18 00:49:16;;;;;;;40.83;24.17;;;;;;;4.59;69.62;100520.94;360668;112;1960588;-72
2020/12/18 00:50:23;;;;;;;39.83;22.53;;;;;;;4.49;69.57;100522.80;361639;112;1960674;-71
2020/12/18 00:51:29;;;;;;;42.61;24.39;;;;;;;4.37;69.75;100516.80;340151;112;2231733;-72
2020/12/18 00:52:34;;;;;;;45.76;24.93;;;;;;;4.30;69.28;100520.19;334526;114;1960657;-72
2020/12/18 00:53:39;;;;;;;40.04;24.38;;;;;;;4.18;69.78;100523.03;350054;114;1960719;-71
2020/12/18 00:54:45;;;;;;;45.33;25.99;;;;;;;4.09;69.68;100513.19;349007;116;1960571;-72
2020/12/18 00:55:51;;;;;;;47.34;27.20;;;;;;;3.96;70.42;100515.31;346742;116;1960712;-72
2020/12/18 00:56:57;;;;;;;45.34;25.22;;;;;;;3.85;70.45;100518.14;320142;114;2567692;-71
2020/12/18 00:58:02;;;;;;;43.27;23.96;;;;;;;3.75;70.77;100512.80;329303;109;1961725;-71
2020/12/18 00:59:08;;;;;;;44.59;24.17;;;;;;;3.66;71.49;100500.29;341592;111;1961658;-72
2020/12/18 01:00:17;;;;;;;40.17;22.23;;;;;;;3.65;71.80;100510.14;366144;111;1960682;-72
2020/12/18 01:01:42;;;;;;;44.13;23.56;;;;;;;3.66;72.06;100505.64;349402;111;1960805;-72
2020/12/18 01:02:47;;;;;;;42.00;23.58;;;;;;;3.72;72.35;100505.06;364893;110;1960699;-72
2020/12/18 01:03:53;;;;;;;41.54;23.94;;;;;;;3.78;72.19;100503.65;362239;111;1960711;-72
2020/12/18 01:04:58;;;;;;;52.50;28.39;;;;;;;3.81;72.21;100504.23;360827;113;1960631;-72
2020/12/18 01:06:09;;;;;;;46.31;24.61;;;;;;;3.85;72.23;100504.78;363769;111;1960627;-72
2020/12/18 01:07:15;;;;;;;40.66;24.02;;;;;;;3.89;72.17;100499.02;321191;111;2776769;-72
2020/12/18 01:08:21;;;;;;;44.48;24.30;;;;;;;3.95;72.05;100501.11;361028;113;1960658;-72
2020/12/18 01:09:28;;;;;;;41.34;21.86;;;;;;;4.01;72.14;100497.02;366700;111;1960622;-72
2020/12/18 01:10:35;;;;;;;38.07;21.99;;;;;;;4.05;72.00;100502.91;337529;111;1960702;-71
2020/12/18 01:11:41;;;;;;;34.99;21.44;;;;;;;4.09;71.62;100501.66;365490;111;1960579;-71
2020/12/18 01:12:49;;;;;;;32.79;20.41;;;;;;;4.14;71.61;100502.06;365153;111;1960649;-71
2020/12/18 01:13:54;;;;;;;40.06;23.43;;;;;;;4.17;71.54;100504.45;329071;110;1963825;-71
2020/12/18 01:15:00;;;;;;;30.49;17.68;;;;;;;4.20;71.40;100506.83;358086;112;1960677;-71
2020/12/18 01:16:11;;;;;;;36.69;19.80;;;;;;;4.23;71.51;100509.20;325852;112;2362583;-72
2020/12/18 01:17:19;;;;;;;33.24;17.28;;;;;;;4.27;71.40;100499.09;313884;110;2075621;-71
2020/12/18 01:18:26;;;;;;;29.63;16.36;;;;;;;4.31;71.23;100504.02;358949;113;1960654;-72
2020/12/18 01:19:31;;;;;;;30.82;17.64;;;;;;;4.36;71.03;100503.55;358284;113;1959703;-72
2020/12/18 01:20:38;;;;;;;29.61;16.12;;;;;;;4.38;70.81;100498.91;323033;111;2694761;-71
2020/12/18 01:21:44;;;;;;;26.46;15.92;;;;;;;4.39;70.73;100496.10;355752;111;1962585;-73
2020/12/18 01:22:49;;;;;;;27.18;15.49;;;;;;;4.46;70.82;100499.02;355710;113;1960739;-72
2020/12/18 01:23:55;;;;;;;29.74;15.42;;;;;;;4.51;70.55;100496.75;356397;112;1960738;-72
2020/12/18 01:25:00;;;;;;;28.41;16.53;;;;;;;4.55;70.29;100491.94;361090;113;1960676;-73
2020/12/18 01:26:07;;;;;;;25.34;14.19;;;;;;;4.58;70.07;100497.02;321548;109;2725765;-72
2020/12/18 01:27:13;;;;;;;28.95;15.23;;;;;;;4.59;69.90;100496.02;361154;111;1960726;-72
2020/12/18 01:28:19;;;;;;;25.71;14.46;;;;;;;4.56;69.56;100497.16;365573;111;1960594;-72
2020/12/18 01:29:26;;;;;;;24.60;14.94;;;;;;;4.59;69.87;100501.37;361335;111;1960674;-72
2020/12/18 01:30:32;;;;;;;28.47;16.24;;;;;;;4.58;69.69;100492.51;332108;114;1960668;-71
2020/12/18 01:31:38;;;;;;;27.21;16.66;;;;;;;4.52;69.64;100495.75;357695;112;1960617;-72
2020/12/18 01:32:45;;;;;;;29.14;17.21;;;;;;;4.45;69.63;100488.48;362905;110;1960772;-71
2020/12/18 01:33:51;;;;;;;32.07;18.65;;;;;;;4.35;69.65;100486.66;324597;109;2745689;-72
2020/12/18 01:34:59;;;;;;;32.97;19.12;;;;;;;4.25;69.96;100488.52;360798;109;1960709;-72
2020/12/18 01:36:05;;;;;;;34.07;19.62;;;;;;;4.14;70.09;100497.55;326909;111;2619712;-71
2020/12/18 01:37:13;;;;;;;35.44;20.12;;;;;;;4.05;70.30;100494.89;363335;111;1960827;-72
2020/12/18 01:38:21;;;;;;;33.90;18.49;;;;;;;3.95;70.65;100492.25;361423;111;1960728;-72
2020/12/18 01:39:27;;;;;;;32.57;18.66;;;;;;;3.88;71.03;100489.30;360774;111;1960667;-72
2020/12/18 01:40:34;;;;;;;34.33;19.29;;;;;;;3.90;71.02;100494.51;322674;111;1999982;-71
2020/12/18 01:41:40;;;;;;;31.81;18.30;;;;;;;3.91;71.01;100497.02;365602;111;1960665;-71
2020/12/18 01:42:48;;;;;;;29.68;16.89;;;;;;;3.95;71.14;100489.58;362009;110;1960630;-72
2020/12/18 01:43:54;;;;;;;37.03;19.34;;;;;;;3.98;71.20;100493.80;339539;112;2308675;-73
2020/12/18 01:44:59;;;;;;;31.38;19.01;;;;;;;4.03;71.05;100492.38;348171;113;1960666;-73
2020/12/18 01:46:12;;;;;;;33.98;18.17;;;;;;;4.08;70.97;100495.47;360446;110;1960748;-72
2020/12/18 01:47:31;;;;;;;32.03;17.25;;;;;;;4.11;70.97;100495.17;343662;113;1960709;-72
2020/12/18 01:48:42;;;;;;;33.73;18.03;;;;;;;4.17;71.02;100489.23;331250;110;1960654;-73
2020/12/18 01:49:47;;;;;;;30.63;18.19;;;;;;;4.24;70.59;100488.69;361522;111;1960747;-72
2020/12/18 01:50:53;;;;;;;30.14;18.37;;;;;;;4.26;70.51;100495.58;338213;111;2373811;-72
2020/12/18 01:52:01;;;;;;;33.76;17.58;;;;;;;4.29;70.52;100487.25;365641;111;1960750;-73
2020/12/18 01:53:28;;;;;;;33.33;19.14;;;;;;;4.31;70.42;100487.96;365680;111;1961623;-72
2020/12/18 01:54:35;;;;;;;34.46;18.61;;;;;;;4.34;70.25;100489.47;358679;112;1960748;-73
2020/12/18 01:55:42;;;;;;;33.07;19.16;;;;;;;4.36;70.33;100487.50;363382;109;1960596;-74
2020/12/18 01:56:50;;;;;;;31.35;17.83;;;;;;;4.39;70.09;100496.10;353292;111;1960587;-73
2020/12/18 01:57:58;;;;;;;31.42;18.76;;;;;;;4.36;69.69;100488.34;308215;111;2116462;-72
2020/12/18 01:59:06;;;;;;;30.03;17.79;;;;;;;4.28;70.16;100485.55;361448;110;1960733;-72
2020/12/18 02:00:17;;;;;;;29.51;17.16;;;;;;;4.36;70.09;100493.69;292612;111;2163351;-73
2020/12/18 02:01:24;;;;;;;31.29;19.08;;;;;;;4.33;70.08;100487.80;363198;110;1960664;-73
2020/12/18 02:02:32;;;;;;;30.10;17.08;;;;;;;4.28;70.17;100493.58;336948;110;2936716;-73
2020/12/18 02:03:39;;;;;;;25.67;14.43;;;;;;;4.25;69.87;100488.52;366350;110;1960651;-72
2020/12/18 02:04:49;;;;;;;29.99;16.59;;;;;;;4.26;69.81;100489.36;360489;110;1960746;-72
2020/12/18 02:05:58;;;;;;;29.44;15.98;;;;;;;4.22;69.95;100486.14;327022;111;2616709;-73
2020/12/18 02:07:11;;;;;;;25.24;15.28;;;;;;;4.22;69.91;100479.95;366314;111;1960670;-73
2020/12/18 02:08:22;;;;;;;27.98;16.87;;;;;;;4.15;69.69;100488.56;364507;110;1960753;-73
2020/12/18 02:09:46;;;;;;;28.19;16.67;;;;;;;4.06;69.82;100484.06;339045;111;1960645;-73
2020/12/18 02:10:55;;;;;;;31.52;18.06;;;;;;;3.94;69.96;100488.74;363693;110;1960541;-72
2020/12/18 02:12:02;;;;;;;28.12;16.88;;;;;;;3.84;70.36;100487.07;359957;112;1960662;-72
2020/12/18 02:13:10;;;;;;;25.83;15.87;;;;;;;3.76;70.01;100479.76;356000;113;1960722;-73
2020/12/18 02:14:15;;;;;;;24.67;14.23;;;;;;;3.65;70.62;100480.75;361578;108;1960688;-73
2020/12/18 02:15:23;;;;;;;25.68;15.00;;;;;;;3.62;70.17;100477.50;362575;111;1960789;-73
2020/12/18 02:16:47;;;;;;;24.57;14.32;;;;;;;3.57;70.75;100477.08;344146;116;1960764;-72
2020/12/18 02:17:55;;;;;;;28.42;15.18;;;;;;;3.55;70.82;100477.23;344148;118;1960614;-72
2020/12/18 02:19:01;;;;;;;26.78;15.42;;;;;;;3.60;70.58;100477.66;345356;113;1960711;-73
2020/12/18 02:20:08;;;;;;;26.80;15.91;;;;;;;3.61;70.67;100476.66;328283;112;2221695;-73
2020/12/18 02:21:14;;;;;;;28.21;15.05;;;;;;;3.64;70.87;100475.53;355314;112;1960655;-73
2020/12/18 02:22:22;;;;;;;27.00;16.16;;;;;;;3.68;70.96;100474.28;362806;111;1960697;-73
2020/12/18 02:23:41;;;;;;;28.99;16.01;;;;;;;3.74;70.86;100476.38;362588;111;1960589;-73
2020/12/18 02:25:02;;;;;;;26.23;14.58;;;;;;;3.78;70.71;100471.58;336964;111;2402734;-73
2020/12/18 02:26:13;;;;;;;29.53;15.70;;;;;;;3.82;70.78;100475.67;362026;111;1967575;-72
2020/12/18 02:27:20;;;;;;;28.67;14.84;;;;;;;3.84;70.75;100471.88;363466;111;1960683;-72
2020/12/18 02:28:28;;;;;;;28.84;15.68;;;;;;;3.91;70.76;100472.97;362345;110;1960710;-73
2020/12/18 02:29:33;;;;;;;27.57;14.64;;;;;;;3.97;70.54;100479.59;361844;111;1960680;-72
2020/12/18 02:30:42;;;;;;;28.46;15.87;;;;;;;4.02;70.38;100474.63;361593;113;1961631;-73
2020/12/18 02:32:02;;;;;;;29.01;16.42;;;;;;;4.04;70.25;100477.17;343204;111;1960651;-72
2020/12/18 02:33:09;;;;;;;30.08;16.02;;;;;;;4.11;70.06;100480.97;365884;110;1960633;-73
2020/12/18 02:34:26;;;;;;;30.14;17.64;;;;;;;4.12;69.89;100474.63;366702;110;1960691;-73
2020/12/18 02:35:34;;;;;;;34.35;18.34;;;;;;;4.11;69.99;100479.13;365258;111;1960707;-72
2020/12/18 02:36:42;;;;;;;33.64;18.42;;;;;;;4.11;69.83;100475.62;361390;111;1960709;-72
2020/12/18 02:37:48;;;;;;;33.33;19.74;;;;;;;4.12;69.93;100475.45;360630;112;1960706;-72
2020/12/18 02:38:57;;;;;;;35.75;20.74;;;;;;;4.09;69.89;100473.08;360113;111;1960780;-72
2020/12/18 02:40:03;;;;;;;39.32;22.08;;;;;;;4.03;70.02;100479.02;363510;111;1960686;-72
2020/12/18 02:41:27;;;;;;;34.67;20.21;;;;;;;3.94;70.16;100482.53;363434;110;1960663;-72
2020/12/18 02:42:49;;;;;;;32.07;18.11;;;;;;;3.84;70.08;100477.22;360756;110;1960702;-73
2020/12/18 02:43:55;;;;;;;32.03;20.27;;;;;;;3.75;70.52;100473.55;356265;112;1960710;-72
2020/12/18 02:45:02;;;;;;;31.88;19.22;;;;;;;3.73;70.71;100472.87;356331;112;1960668;-72
2020/12/18 02:46:18;;;;;;;34.57;19.97;;;;;;;3.75;70.70;100472.70;363047;110;1960578;-72
2020/12/18 02:47:23;;;;;;;34.54;20.31;;;;;;;3.79;70.68;100467.94;327668;111;2626754;-72
2020/12/18 02:48:28;;;;;;;32.86;18.96;;;;;;;3.83;70.67;100469.33;349218;111;1961683;-72
2020/12/18 02:49:36;;;;;;;30.29;18.12;;;;;;;3.88;70.44;100475.92;360921;112;1960719;-73
2020/12/18 02:50:49;;;;;;;34.77;18.06;;;;;;;3.89;70.47;100472.28;359461;111;1960656;-73
2020/12/18 02:51:55;;;;;;;35.58;17.73;;;;;;;3.93;70.44;100475.51;364895;111;1960734;-72
2020/12/18 02:53:19;;;;;;;29.29;17.46;;;;;;;3.96;70.27;100477.89;346590;117;1960697;-73
2020/12/18 02:54:46;;;;;;;25.95;16.09;;;;;;;3.99;70.02;100472.25;340636;119;1960700;-72
2020/12/18 02:55:58;;;;;;;30.66;16.07;;;;;;;4.03;69.83;100481.69;338960;119;1960754;-71
2020/12/18 02:57:22;;;;;;;27.64;15.18;;;;;;;4.01;69.48;100480.98;323032;115;1960834;-73
2020/12/18 02:58:30;;;;;;;26.42;16.36;;;;;;;4.04;69.52;100479.84;343703;116;1960735;-72
2020/12/18 02:59:36;;;;;;;23.78;14.65;;;;;;;4.03;69.36;100480.84;305486;117;2076229;-73
2020/12/18 03:00:45;;;;;;;24.33;13.94;;;;;;;3.95;69.43;100479.73;349262;112;1960853;-72
2020/12/18 03:01:50;;;;;;;23.90;14.39;;;;;;;3.86;69.46;100479.73;333781;111;1960659;-72
2020/12/18 03:02:56;;;;;;;24.76;14.92;;;;;;;3.77;69.43;100477.92;360859;113;1960630;-72
2020/12/18 03:04:03;;;;;;;28.90;17.56;;;;;;;3.66;69.56;100477.08;361003;111;1960726;-72
2020/12/18 03:05:19;;;;;;;27.22;15.36;;;;;;;3.54;69.76;100472.86;323370;112;2213764;-72
2020/12/18 03:06:42;;;;;;;27.91;16.44;;;;;;;3.43;70.31;100481.85;360731;111;1960701;-72
2020/12/18 03:07:49;;;;;;;25.21;14.33;;;;;;;3.34;70.40;100480.03;335064;111;1960668;-72
2020/12/18 03:08:54;;;;;;;23.91;14.22;;;;;;;3.25;70.85;100475.51;363339;111;1960678;-72
2020/12/18 03:09:59;;;;;;;20.24;12.10;;;;;;;3.20;70.78;100477.75;364376;108;1961701;-73
2020/12/18 03:11:05;;;;;;;19.81;11.21;;;;;;;3.21;71.02;100479.45;358902;113;1960698;-73
2020/12/18 03:12:11;;;;;;;21.52;12.86;;;;;;;3.22;70.98;100476.63;345912;114;1960692;-73
2020/12/18 03:13:17;;;;;;;21.97;12.93;;;;;;;3.25;71.07;100472.84;328848;111;2641653;-72
2020/12/18 03:14:24;;;;;;;21.15;12.13;;;;;;;3.26;71.13;100478.05;363554;108;1960663;-72
2020/12/18 03:15:31;;;;;;;18.36;9.77;;;;;;;3.31;71.11;100472.31;363878;111;1960684;-72
2020/12/18 03:16:45;;;;;;;19.24;10.98;;;;;;;3.35;70.95;100471.02;360009;111;1960715;-72
2020/12/18 03:17:52;;;;;;;20.64;10.74;;;;;;;3.36;71.06;100478.08;303252;111;2206949;-72
2020/12/18 03:18:57;;;;;;;16.17;9.18;;;;;;;3.40;71.14;100470.62;334736;111;1960672;-73
2020/12/18 03:20:04;;;;;;;22.00;12.53;;;;;;;3.46;70.97;100476.23;361005;111;1960882;-72
2020/12/18 03:21:13;;;;;;;21.01;10.24;;;;;;;3.51;70.89;100473.98;352262;111;1961750;-71
2020/12/18 03:22:23;;;;;;;20.08;10.28;;;;;;;3.55;70.81;100474.56;359192;112;1960683;-73
2020/12/18 03:23:48;;;;;;;19.04;10.74;;;;;;;3.58;70.67;100473.44;352964;112;1960604;-71
2020/12/18 03:25:07;;;;;;;17.05;9.58;;;;;;;3.62;70.67;100477.50;352665;113;1960748;-72
2020/12/18 03:26:23;;;;;;;18.98;9.53;;;;;;;3.65;70.71;100478.08;353553;113;1960671;-72
2020/12/18 03:27:30;;;;;;;17.09;10.46;;;;;;;3.71;70.56;100482.84;340436;112;2258703;-72
2020/12/18 03:28:37;;;;;;;21.00;11.76;;;;;;;3.78;70.30;100477.77;353867;113;1960667;-72
2020/12/18 03:29:44;;;;;;;17.35;10.21;;;;;;;3.82;70.09;100479.18;361001;113;1960725;-72
2020/12/18 03:30:50;;;;;;;19.75;10.17;;;;;;;3.85;70.03;100486.07;307758;110;2187643;-73
2020/12/18 03:31:55;;;;;;;18.02;9.38;;;;;;;3.89;70.04;100482.11;355006;111;1960548;-72
2020/12/18 03:33:02;;;;;;;17.69;10.49;;;;;;;3.92;69.90;100479.17;363495;111;1960678;-72
2020/12/18 03:34:08;;;;;;;18.69;10.74;;;;;;;3.91;69.90;100478.31;361256;111;1960707;-72
2020/12/18 03:35:20;;;;;;;16.64;10.91;;;;;;;3.95;69.88;100479.73;324179;111;2678636;-72
2020/12/18 03:36:26;;;;;;;17.46;10.54;;;;;;;3.94;69.49;100480.72;366094;111;1960590;-72
2020/12/18 03:37:34;;;;;;;20.66;11.13;;;;;;;3.91;69.42;100482.81;346421;113;2229742;-72
2020/12/18 03:38:41;;;;;;;22.42;11.98;;;;;;;3.82;69.54;100473.84;356850;112;1960676;-72
2020/12/18 03:39:47;;;;;;;16.50;9.73;;;;;;;3.73;69.58;100475.54;363822;111;1960600;-73
2020/12/18 03:41:06;;;;;;;21.14;11.00;;;;;;;3.63;69.63;100477.37;356792;113;1960592;-72
2020/12/18 03:42:12;;;;;;;18.59;10.71;;;;;;;3.52;69.82;100472.17;335255;113;2346613;-72
2020/12/18 03:43:17;;;;;;;18.98;11.04;;;;;;;3.43;69.78;100476.52;334073;113;1960730;-72
2020/12/18 03:44:22;;;;;;;22.19;11.57;;;;;;;3.34;70.00;100484.53;357362;113;1960691;-72
2020/12/18 03:45:28;;;;;;;18.57;10.43;;;;;;;3.24;70.44;100480.02;355832;113;1960728;-72
2020/12/18 03:46:42;;;;;;;18.89;10.29;;;;;;;3.18;70.34;100485.91;344620;115;1960764;-72
2020/12/18 03:47:52;;;;;;;18.22;9.11;;;;;;;3.13;70.75;100479.30;355967;111;1960597;-72
2020/12/18 03:48:59;;;;;;;19.21;10.79;;;;;;;3.12;70.74;100483.78;354518;113;1960700;-72
2020/12/18 03:50:10;;;;;;;17.35;9.08;;;;;;;3.15;71.05;100483.53;312855;113;2906698;-73
2020/12/18 03:51:15;;;;;;;18.01;9.74;;;;;;;3.18;70.81;100480.58;341322;113;1960689;-71
2020/12/18 03:52:21;;;;;;;19.34;9.78;;;;;;;3.21;71.04;100474.95;351371;114;1960758;-73
2020/12/18 03:53:28;;;;;;;16.02;9.11;;;;;;;3.25;71.18;100480.84;349858;114;1960749;-72
2020/12/18 03:54:35;;;;;;;15.65;9.33;;;;;;;3.29;71.05;100480.44;352448;112;1960714;-73
2020/12/18 03:55:52;;;;;;;16.84;9.69;;;;;;;3.35;71.05;100475.53;351439;115;1960650;-71
2020/12/18 03:57:03;;;;;;;17.61;9.43;;;;;;;3.42;70.83;100477.51;353432;113;1960694;-72
2020/12/18 03:58:19;;;;;;;21.22;9.86;;;;;;;3.46;70.78;100478.06;346201;115;1960641;-72
2020/12/18 03:59:30;;;;;;;17.70;8.59;;;;;;;3.50;70.84;100471.47;353236;112;1960657;-73
2020/12/18 04:00:39;;;;;;;17.79;9.11;;;;;;;3.58;70.70;100468.09;357436;113;1960662;-73
2020/12/18 04:02:02;;;;;;;18.01;9.22;;;;;;;3.63;70.31;100469.36;297980;113;2198751;-72
2020/12/18 04:03:08;;;;;;;16.72;9.55;;;;;;;3.67;70.26;100470.74;344189;113;1960619;-73
2020/12/18 04:04:14;;;;;;;15.64;8.38;;;;;;;3.71;70.22;100465.98;355668;113;1960570;-71
2020/12/18 04:05:20;;;;;;;18.23;10.32;;;;;;;3.75;69.98;100470.87;355220;113;1960656;-72
2020/12/18 04:06:28;;;;;;;15.70;9.08;;;;;;;3.74;69.68;100471.88;356185;113;1960701;-72
2020/12/18 04:07:34;;;;;;;14.95;8.51;;;;;;;3.80;69.85;100469.62;354740;113;1960684;-72
2020/12/18 04:08:41;;;;;;;16.63;9.38;;;;;;;3.83;69.54;100467.49;316133;115;1960651;-71
2020/12/18 04:09:49;;;;;;;16.17;9.68;;;;;;;3.74;69.18;100468.36;357484;113;1960601;-71
2020/12/18 04:10:58;;;;;;;19.56;10.10;;;;;;;3.65;69.12;100467.39;358329;113;1960759;-72
2020/12/18 04:12:17;;;;;;;14.74;8.24;;;;;;;3.55;69.05;100474.56;347285;115;1960681;-72
2020/12/18 04:13:35;;;;;;;18.42;9.71;;;;;;;3.46;68.67;100465.55;308611;114;2830719;-73
2020/12/18 04:14:40;;;;;;;15.21;9.15;;;;;;;3.29;68.95;100472.44;354099;114;1960650;-72
2020/12/18 04:15:47;;;;;;;15.68;10.08;;;;;;;3.18;69.27;100467.23;353390;114;1960665;-72
2020/12/18 04:16:53;;;;;;;18.55;10.78;;;;;;;3.07;69.47;100462.02;325327;114;1960638;-72
2020/12/18 04:17:59;;;;;;;17.61;10.38;;;;;;;2.99;69.82;100465.38;344418;117;1959718;-72
2020/12/18 04:19:05;;;;;;;17.36;11.11;;;;;;;2.92;70.19;100463.39;346947;114;1960772;-72
2020/12/18 04:20:12;;;;;;;17.33;10.94;;;;;;;2.85;70.20;100461.25;322600;112;2589797;-72
2020/12/18 04:21:19;;;;;;;19.67;10.48;;;;;;;2.79;70.36;100464.47;355901;113;1959692;-73
2020/12/18 04:22:29;;;;;;;15.84;9.01;;;;;;;2.73;70.86;100462.35;307737;115;2135822;-72
2020/12/18 04:23:39;;;;;;;13.79;8.25;;;;;;;2.71;71.15;100466.97;351048;114;1960713;-72
2020/12/18 04:24:46;;;;;;;15.28;8.92;;;;;;;2.76;71.32;100462.08;299654;112;2221029;-74
2020/12/18 04:25:53;;;;;;;12.99;7.60;;;;;;;2.82;71.48;100471.36;353842;115;1960679;-74
2020/12/18 04:26:59;;;;;;;15.30;8.71;;;;;;;2.90;71.37;100470.68;354174;113;1960735;-74
2020/12/18 04:28:05;;;;;;;13.39;7.79;;;;;;;2.96;71.38;100467.45;323278;115;2535735;-73
2020/12/18 04:29:11;;;;;;;14.92;7.47;;;;;;;3.02;71.33;100469.59;352662;115;1960621;-74
2020/12/18 04:30:18;;;;;;;14.19;7.46;;;;;;;3.08;71.34;100469.03;353260;115;1960722;-74
2020/12/18 04:31:25;;;;;;;13.08;7.22;;;;;;;3.13;71.09;100468.63;335168;113;2222735;-74
2020/12/18 04:32:30;;;;;;;12.30;6.47;;;;;;;3.19;71.16;100462.72;353036;115;1961684;-74
2020/12/18 04:33:36;;;;;;;13.02;7.94;;;;;;;3.24;71.01;100465.83;347249;114;1960709;-73
2020/12/18 04:34:43;;;;;;;13.77;6.96;;;;;;;3.27;70.87;100463.70;337749;118;1960751;-74
2020/12/18 04:35:50;;;;;;;15.13;8.01;;;;;;;3.32;70.96;100463.30;335654;119;1960831;-74
2020/12/18 04:36:57;;;;;;;14.14;7.95;;;;;;;3.37;70.81;100466.40;353467;114;1960773;-74
2020/12/18 04:38:05;;;;;;;14.38;7.66;;;;;;;3.43;70.77;100470.33;349925;113;1960677;-74
2020/12/18 04:39:18;;;;;;;13.31;7.46;;;;;;;3.45;70.57;100468.38;297257;113;2199754;-74
2020/12/18 04:40:27;;;;;;;15.74;7.81;;;;;;;3.50;70.69;100471.47;349163;114;1960708;-74
2020/12/18 04:41:38;;;;;;;15.88;7.82;;;;;;;3.57;70.55;100475.24;348372;115;1960660;-74
2020/12/18 04:42:46;;;;;;;14.57;8.53;;;;;;;3.61;70.34;100471.31;353718;112;1960695;-74
2020/12/18 04:43:53;;;;;;;14.17;8.71;;;;;;;3.66;70.27;100473.58;325679;114;2389114;-74
2020/12/18 04:45:02;;;;;;;17.08;8.04;;;;;;;3.68;70.16;100474.28;349481;115;1960621;-75
2020/12/18 04:46:10;;;;;;;15.90;8.46;;;;;;;3.74;70.00;100473.70;348376;116;1960656;-74
2020/12/18 04:47:16;;;;;;;14.48;7.50;;;;;;;3.79;69.86;100473.28;348391;116;1960614;-74
2020/12/18 04:48:27;;;;;;;17.51;9.48;;;;;;;3.84;69.61;100479.89;329336;115;1960626;-74
2020/12/18 04:49:35;;;;;;;15.97;9.23;;;;;;;3.83;69.41;100474.67;345573;116;1960728;-73
2020/12/18 04:50:46;;;;;;;17.43;9.81;;;;;;;3.79;69.31;100473.28;345628;116;1960611;-74
2020/12/18 04:51:56;;;;;;;18.72;11.76;;;;;;;3.71;69.14;100473.99;353484;112;1960633;-74
2020/12/18 04:53:06;;;;;;;18.00;10.90;;;;;;;3.59;69.14;100478.63;347571;115;1960608;-75
2020/12/18 04:54:18;;;;;;;18.21;11.39;;;;;;;3.49;69.09;100473.30;347092;116;1960613;-75
2020/12/18 04:55:27;;;;;;;;;;;;;;;3.38;69.35;100475.25;352004;115;1959680;-74
2020/12/18 04:56:51;;;;;;;18.10;10.74;;;;;;;3.28;69.51;100476.09;351807;113;1959695;-74
2020/12/18 04:58:02;;;;;;;19.37;11.84;;;;;;;3.19;69.35;100476.91;321627;115;1960750;-73
2020/12/18 04:59:07;;;;;;;23.98;14.13;;;;;;;3.12;69.42;100474.93;336343;113;2258639;-74
2020/12/18 05:00:26;;;;;;;25.01;15.43;;;;;;;3.04;69.46;100481.82;352762;113;1960622;-74
2020/12/18 05:01:54;;;;;;;24.06;14.54;;;;;;;2.93;70.07;100475.73;351462;115;1960677;-74
2020/12/18 05:03:01;;;;;;;27.68;13.94;;;;;;;2.83;70.50;100481.91;348766;116;1960746;-74
2020/12/18 05:04:07;;;;;;;26.29;14.20;;;;;;;2.77;70.71;100478.92;331298;116;1960697;-74
2020/12/18 05:05:15;;;;;;;22.96;11.23;;;;;;;2.72;70.69;100479.32;349368;114;1961616;-74
2020/12/18 05:06:23;;;;;;;25.61;13.16;;;;;;;2.73;71.01;100485.53;339985;114;1961669;-74
2020/12/18 05:07:29;;;;;;;21.50;12.95;;;;;;;2.74;71.14;100481.87;351610;113;1960668;-74
2020/12/18 05:08:35;;;;;;;23.87;11.81;;;;;;;2.79;71.24;100482.30;322639;115;2537660;-74
2020/12/18 05:09:43;;;;;;;22.34;11.77;;;;;;;2.85;71.20;100481.75;335970;115;1960577;-74